PAFR METAR and TAF weather

Enter ICAO airport designator
Station Type Date Time Source
PAFR METAR 2022/06/28 15:56 UTC NOAA

PAFR 281556Z AUTO 00000KT 10SM CLR 14/08 A3004 RMK AO2 SLP178 T01350081 VISNO RWY35 CHINO RWY35 $


Station Type Date Time Source
PAFR Decoded METAR 2022/06/28 15:56 UTC NOAA

Ft. Richardson / Bryant U. S. Army Heliport, Ak, AK, United States (PAFR) 61-16N 149-39W 115M
Jun 28, 2022 - 11:56 AM EDT / 2022.06.28 1556 UTC
Wind: Calm:0
Visibility: 10 mile(s):0
Sky conditions: clear
Temperature: 56.3 F (13.5 C)
Dew Point: 46.6 F (8.1 C)
Relative Humidity: 69%
Pressure (altimeter): 30.04 in. Hg (1017 hPa)
ob: PAFR 281556Z AUTO 00000KT 10SM CLR 14/08 A3004 RMK AO2 SLP178 T01350081 VISNO RWY35 CHINO RWY35
cycle: 16

Station Type Date Time Source
PAFR TAF UTC NOAA

Error!

Example: see airport list